MSC Lisbon — A8LL9 — position and weather

sailwx.info

Track history (hours):
 
Tides and Currents Weather Stations Pressure Air Temp Water Temp Dewpoint Dewpoint Depression Visibility Wind Speed Wind Dir Waves Ship Positions

MSC Lisbon

Last reported at 2014-Jul-26 15:29 UTC. Time now 2014-Jul-28 20:29 UTC.
Position N 34°43' W 129°02'.

Length 336.7 m; beam 45.6 m; draft 15.3 m.

Type: Ship (hazmat cat A). MMSI: 636091276.

Date/timePositionNaut miles runAvg speedWind from/ knotsBaromVisibWave heightAir tempDewpointWater temp
2014-Jul-26 15:29N 34°43' W 129°02'1719.0
2014-Jul-26 14:33N 34°32' W 128°45'2618.9
2014-Jul-26 13:11N 34°17' W 128°19'14618.8
2014-Jul-26 05:22N 32°50' W 125°58'1818.9
2014-Jul-26 04:24N 32°39' W 125°41'1618.8
2014-Jul-26 03:33N 32°29' W 125°26'2018.8
2014-Jul-26 02:29N 32°17' W 125°07'2318.8
2014-Jul-26 01:17N 32°03' W 124°46'3818.8
2014-Jul-25 23:14N 31°39' W 124°10'1318.8
2014-Jul-25 22:33N 31°31' W 123°59'1918.9
2014-Jul-25 21:33N 31°20' W 123°41'1919.0
2014-Jul-25 20:33N 31°08' W 123°24'1918.9
2014-Jul-25 19:33N 30°56' W 123°07'1919.0
2014-Jul-25 18:33N 30°44' W 122°50'1919.0
2014-Jul-25 17:33N 30°32' W 122°32'1919.0
2014-Jul-25 16:33N 30°20' W 122°15'1919.2
2014-Jul-25 15:33N 30°08' W 121°58'1919.0
2014-Jul-25 14:34N 29°56' W 121°41'1918.8
2014-Jul-25 13:33N 29°44' W 121°24'1918.9
2014-Jul-25 12:33N 29°32' W 121°08'1919.0
2014-Jul-25 11:33N 29°20' W 120°51'1918.8
2014-Jul-25 10:33N 29°08' W 120°34'1919.0
2014-Jul-25 09:33N 28°55' W 120°18'1919.0
2014-Jul-25 08:33N 28°43' W 120°01'1918.9
2014-Jul-25 07:33N 28°31' W 119°45'1919.0
2014-Jul-25 06:33N 28°18' W 119°28'1919.0
2014-Jul-25 05:33N 28°06' W 119°12'11519.0
2014-Jul-24 23:29N 26°50' W 117°34'1819.0
2014-Jul-24 22:33N 26°39' W 117°19'2019.1
2014-Jul-24 21:31N 26°25' W 117°03'4719.0
2014-Jul-24 19:04N 25°54' W 116°24'1119.1
2014-Jul-24 18:30N 25°47' W 116°15'1819.0
2014-Jul-24 17:33N 25°35' W 116°00'1919.1
2014-Jul-24 16:33N 25°22' W 115°45'1919.0
2014-Jul-24 15:33N 25°09' W 115°29'1919.0
2014-Jul-24 14:34N 24°57' W 115°14'2019.3
2014-Jul-24 13:33N 24°43' W 114°58'1818.7
2014-Jul-24 12:34N 24°31' W 114°43'1918.6
2014-Jul-24 11:33N 24°18' W 114°28'1918.7
2014-Jul-24 10:32N 24°05' W 114°12'1818.8
2014-Jul-24 09:33N 23°53' W 113°58'  
Track history (hours):
 
Tides and Currents Weather Stations Pressure Air Temp Water Temp Dewpoint Dewpoint Depression Visibility Wind Speed Wind Dir Waves Ship Positions

MSC Lisbon

Last reported at 2014-Jul-26 15:29 UTC. Time now 2014-Jul-28 20:29 UTC.
Position N 34°43' W 129°02'.

Length 336.7 m; beam 45.6 m; draft 15.3 m.

Type: Ship (hazmat cat A). MMSI: 636091276.

Date/timePositionNaut miles runAvg speedWind from/ knotsBaromVisibWave heightAir tempDewpointWater temp
2014-Jul-26 15:29N 34°43' W 129°02'1719.0
2014-Jul-26 14:33N 34°32' W 128°45'2618.9
2014-Jul-26 13:11N 34°17' W 128°19'14618.8
2014-Jul-26 05:22N 32°50' W 125°58'1818.9
2014-Jul-26 04:24N 32°39' W 125°41'1618.8
2014-Jul-26 03:33N 32°29' W 125°26'2018.8
2014-Jul-26 02:29N 32°17' W 125°07'2318.8
2014-Jul-26 01:17N 32°03' W 124°46'3818.8
2014-Jul-25 23:14N 31°39' W 124°10'1318.8
2014-Jul-25 22:33N 31°31' W 123°59'1918.9
2014-Jul-25 21:33N 31°20' W 123°41'1919.0
2014-Jul-25 20:33N 31°08' W 123°24'1918.9
2014-Jul-25 19:33N 30°56' W 123°07'1919.0
2014-Jul-25 18:33N 30°44' W 122°50'1919.0
2014-Jul-25 17:33N 30°32' W 122°32'1919.0
2014-Jul-25 16:33N 30°20' W 122°15'1919.2
2014-Jul-25 15:33N 30°08' W 121°58'1919.0
2014-Jul-25 14:34N 29°56' W 121°41'1918.8
2014-Jul-25 13:33N 29°44' W 121°24'1918.9
2014-Jul-25 12:33N 29°32' W 121°08'1919.0
2014-Jul-25 11:33N 29°20' W 120°51'1918.8
2014-Jul-25 10:33N 29°08' W 120°34'1919.0
2014-Jul-25 09:33N 28°55' W 120°18'1919.0
2014-Jul-25 08:33N 28°43' W 120°01'1918.9
2014-Jul-25 07:33N 28°31' W 119°45'1919.0
2014-Jul-25 06:33N 28°18' W 119°28'1919.0
2014-Jul-25 05:33N 28°06' W 119°12'11519.0
2014-Jul-24 23:29N 26°50' W 117°34'1819.0
2014-Jul-24 22:33N 26°39' W 117°19'2019.1
2014-Jul-24 21:31N 26°25' W 117°03'4719.0
2014-Jul-24 19:04N 25°54' W 116°24'1119.1
2014-Jul-24 18:30N 25°47' W 116°15'1819.0
2014-Jul-24 17:33N 25°35' W 116°00'1919.1
2014-Jul-24 16:33N 25°22' W 115°45'1919.0
2014-Jul-24 15:33N 25°09' W 115°29'1919.0
2014-Jul-24 14:34N 24°57' W 115°14'2019.3
2014-Jul-24 13:33N 24°43' W 114°58'1818.7
2014-Jul-24 12:34N 24°31' W 114°43'1918.6
2014-Jul-24 11:33N 24°18' W 114°28'1918.7
2014-Jul-24 10:32N 24°05' W 114°12'1818.8
2014-Jul-24 09:33N 23°53' W 113°58'  

Dump ship's entire track history